Hartman, North Carolina
Current Conditions -  °F | °C
As of 2:35 AM on Thursday 23 Oct 2014 (Local Time) from KMTV Reporting Station
Clear Clear  
Wind Chill: 46°   Ceiling: Unl
Heat Index: 48°   Visibility: 10mi
Dew Point: 40°   Wind: 6mph
Humidity: 74%   Direction: 320°NW
Pressure: 30.07"   Gusts: NA
Location:  36.4518°N, 80.2145°W
Report Text: KMTV 230635Z AUTO 32005KT 10SM CLR 09/05 A3007 RMK AO2 T00910046
Loading
Personal Weather Stations






























Interactive Weather Map
Tropical Storm Tracking
New forecast layout! Learn more

10-Day Weather Forecast

Advertisements
Track Severe Weather on mobile